KPSF/PSF METAR and TAF weather

Enter ICAO airport designator
Station Type Date Time Source
KPSF METAR 2019/05/20 10:54 UTC NOAA

KPSF 201054Z AUTO 23007KT 10SM FEW018 OVC030 19/16 A2981 RMK AO2 SLP070 T01940161


Station Type Date Time Source
KPSF Decoded METAR 2019/05/20 10:54 UTC NOAA

PITTSFIELD MUNICIPAL AIRPORT , MA, United States (KPSF) 42-26N 073-17W 355M
May 20, 2019 - 06:54 AM EDT / 2019.05.20 1054 UTC
Wind: from the SW (230 degrees) at 8 MPH (7 KT):0
Visibility: 10 mile(s):0
Sky conditions: overcast
Temperature: 66.9 F (19.4 C)
Dew Point: 61.0 F (16.1 C)
Relative Humidity: 81%
Pressure (altimeter): 29.81 in. Hg (1009 hPa)
ob: KPSF 201054Z AUTO 23007KT 10SM FEW018 OVC030 19/16 A2981 RMK AO2 SLP070 T01940161
cycle: 11

Station Type Date Time Source
KPSF TAF 2019/05/20 06:36 UTC NOAA

TAF KPSF 200534Z 2006/2106 18006KT P6SM VCSH BKN100 WS020/21040KT
TEMPO 2006/2007 17008KT 3SM -SHRA OVC030
FM200700 22005KT P6SM OVC090
TEMPO 2008/2012 2SM BR BKN035
FM201400 24010KT P6SM BKN050
FM201700 24012G20KT P6SM BKN050 PROB30 2017/2021 -SHRA OVC030
FM202100 28012G22KT P6SM BKN050

Example: see airport list